Time;durP1;ratioP1;P1;durP2;ratioP2;P2;SDS_P1;SDS_P2;PMS_P1;PMS_P2;Temp;Humidity;BMP_temperature;BMP_pressure;BME280_temperature;BME280_humidity;BME280_pressure;Samples;Min_cycle;Max_cycle;Signal;HPM_P1;HPM_P2
2022/08/31 00:06:03;;;;;;;6.83;6.23;;;18.50;99.90;;;;;;5091831;28;20185;-64
2022/08/31 00:08:29;;;;;;;12.90;8.27;;;18.30;99.90;;;;;;5091833;28;20262;-65
2022/08/31 00:10:55;;;;;;;9.77;8.80;;;18.30;99.90;;;;;;5091580;28;20189;-66
2022/08/31 00:13:23;;;;;;;8.23;7.40;;;18.20;99.90;;;;;;5091168;28;20200;-63
2022/08/31 00:15:50;;;;;;;8.00;7.30;;;18.10;99.90;;;;;;5091390;28;20189;-66
2022/08/31 00:18:17;;;;;;;8.53;7.20;;;18.00;99.90;;;;;;5091631;28;20177;-66
2022/08/31 00:20:44;;;;;;;7.87;7.13;;;17.90;99.90;;;;;;5091423;28;20266;-67
2022/08/31 00:23:12;;;;;;;7.40;6.70;;;17.90;99.90;;;;;;5091315;28;20670;-66
2022/08/31 00:25:41;;;;;;;7.30;6.70;;;17.90;99.90;;;;;;5091186;28;20533;-66
2022/08/31 00:28:08;;;;;;;10.47;7.93;;;18.00;99.90;;;;;;5091350;28;20193;-67
2022/08/31 00:30:34;;;;;;;7.27;6.67;;;18.10;99.90;;;;;;5091272;28;20199;-65
2022/08/31 00:33:00;;;;;;;8.97;7.50;;;18.00;99.90;;;;;;5090590;28;20192;-65
2022/08/31 00:35:27;;;;;;;8.50;7.70;;;18.10;99.90;;;;;;5091631;28;20177;-66
2022/08/31 00:37:53;;;;;;;7.00;6.40;;;18.00;99.90;;;;;;5091852;28;20220;-66
2022/08/31 00:40:18;;;;;;;8.20;7.17;;;17.90;99.90;;;;;;5091453;28;20354;-66
2022/08/31 00:42:44;;;;;;;8.07;6.80;;;17.80;99.90;;;;;;5093568;28;20208;-66
2022/08/31 00:45:10;;;;;;;8.07;7.27;;;17.80;99.90;;;;;;5095050;28;20165;-66
2022/08/31 00:47:36;;;;;;;6.73;6.23;;;17.80;99.90;;;;;;5095325;28;20689;-66
2022/08/31 00:50:05;;;;;;;7.20;6.67;;;17.70;99.90;;;;;;5095478;28;20170;-66
2022/08/31 00:52:36;;;;;;;8.00;7.30;;;17.70;99.90;;;;;;5095263;28;20228;-66
2022/08/31 00:55:25;;;;;;;7.17;6.40;;;17.60;99.90;;;;;;5095120;28;20177;-66
2022/08/31 00:57:54;;;;;;;8.10;6.53;;;17.40;99.90;;;;;;5094459;28;20189;-66
2022/08/31 01:00:23;;;;;;;10.83;6.90;;;17.50;99.90;;;;;;5095174;28;20190;-65
2022/08/31 01:02:49;;;;;;;7.03;6.53;;;17.60;99.90;;;;;;5094993;28;20280;-66
2022/08/31 01:05:16;;;;;;;8.53;7.73;;;17.50;99.90;;;;;;5094799;28;20216;-66
2022/08/31 01:07:45;;;;;;;7.70;6.90;;;17.50;99.90;;;;;;5094983;28;20552;-66
2022/08/31 01:10:11;;;;;;;7.77;7.07;;;17.30;99.90;;;;;;5095199;28;20257;-67
2022/08/31 01:12:37;;;;;;;8.67;6.97;;;17.20;99.90;;;;;;5094791;28;20275;-64
2022/08/31 01:15:06;;;;;;;7.63;7.03;;;17.10;99.90;;;;;;5094705;28;20219;-64
2022/08/31 01:17:36;;;;;;;6.70;6.13;;;17.10;99.90;;;;;;5094526;28;20178;-64
2022/08/31 01:20:29;;;;;;;7.93;7.33;;;17.00;99.90;;;;;;5094746;28;20181;-64
2022/08/31 01:23:15;;;;;;;7.33;6.73;;;17.00;99.90;;;;;;5094672;28;20201;-64
2022/08/31 01:25:43;;;;;;;7.87;7.07;;;17.00;99.90;;;;;;5094620;28;20204;-66
2022/08/31 01:28:10;;;;;;;7.40;6.70;;;17.00;99.90;;;;;;5094461;28;20646;-65
2022/08/31 01:30:37;;;;;;;8.03;7.33;;;17.00;99.90;;;;;;5094761;28;20204;-65
2022/08/31 01:33:03;;;;;;;8.10;7.40;;;17.00;99.90;;;;;;5093637;28;20200;-64
2022/08/31 01:35:31;;;;;;;10.00;7.13;;;17.00;99.90;;;;;;5094398;28;20176;-65
2022/08/31 01:37:57;;;;;;;8.70;7.30;;;17.10;99.90;;;;;;5094364;28;20177;-65
2022/08/31 01:40:36;;;;;;;9.23;7.13;;;17.10;99.90;;;;;;5094516;28;20280;-64
2022/08/31 01:43:02;;;;;;;7.33;6.73;;;17.10;99.90;;;;;;5094236;28;20283;-65
2022/08/31 01:45:27;;;;;;;7.57;6.97;;;17.10;99.90;;;;;;5093707;28;20181;-65
2022/08/31 01:47:53;;;;;;;8.63;7.63;;;17.10;99.90;;;;;;5094152;28;20514;-66
2022/08/31 01:50:19;;;;;;;9.13;7.30;;;17.10;99.90;;;;;;5094326;28;20205;-65
2022/08/31 01:52:44;;;;;;;7.93;7.13;;;17.10;99.90;;;;;;5093933;28;20279;-65
2022/08/31 01:55:10;;;;;;;9.03;8.20;;;17.10;99.90;;;;;;5093861;28;20166;-66
2022/08/31 01:57:36;;;;;;;8.33;6.87;;;17.00;99.90;;;;;;5093793;28;20178;-66
2022/08/31 02:00:07;;;;;;;8.73;7.53;;;16.90;99.90;;;;;;5093697;28;20646;-65
2022/08/31 02:02:33;;;;;;;7.43;6.73;;;17.00;99.90;;;;;;5094150;28;20678;-64
2022/08/31 02:04:59;;;;;;;8.93;7.43;;;17.00;99.90;;;;;;5093560;28;20205;-65
2022/08/31 02:07:25;;;;;;;8.00;7.30;;;17.00;99.90;;;;;;5093905;28;20200;-65
2022/08/31 02:09:51;;;;;;;8.93;6.63;;;17.00;99.90;;;;;;5092537;28;20178;-64
2022/08/31 02:12:17;;;;;;;11.50;7.40;;;16.80;99.90;;;;;;5093703;28;20193;-65
2022/08/31 02:14:42;;;;;;;8.13;7.33;;;16.80;99.90;;;;;;5093319;28;20181;-64
2022/08/31 02:17:08;;;;;;;9.77;8.07;;;16.90;99.90;;;;;;5093498;28;20181;-65
2022/08/31 02:19:34;;;;;;;7.60;6.87;;;16.90;99.90;;;;;;5093228;28;20205;-65
2022/08/31 02:22:00;;;;;;;7.83;7.03;;;16.80;99.90;;;;;;5093630;28;20255;-65
2022/08/31 02:24:25;;;;;;;8.40;7.40;;;16.70;99.90;;;;;;5093063;28;20245;-66
2022/08/31 02:26:51;;;;;;;8.30;7.70;;;16.60;99.90;;;;;;5093461;28;20173;-65
2022/08/31 02:29:16;;;;;;;9.10;8.30;;;16.70;99.90;;;;;;5093352;28;20174;-66
2022/08/31 02:31:43;;;;;;;11.37;7.90;;;16.70;99.90;;;;;;5093474;28;20173;-66
2022/08/31 02:34:08;;;;;;;12.03;8.47;;;16.80;99.90;;;;;;5093019;28;20174;-66
2022/08/31 02:36:35;;;;;;;9.97;8.67;;;16.80;99.90;;;;;;5093447;28;20188;-65
2022/08/31 02:39:00;;;;;;;12.10;8.43;;;16.90;99.90;;;;;;5093113;28;20315;-66
2022/08/31 02:41:26;;;;;;;9.23;8.33;;;16.90;99.90;;;;;;5093208;28;20288;-65
2022/08/31 02:43:52;;;;;;;9.17;8.37;;;16.70;99.90;;;;;;5092682;28;20200;-65
2022/08/31 02:46:18;;;;;;;9.33;8.27;;;16.60;99.90;;;;;;5093105;28;20172;-66
2022/08/31 02:48:44;;;;;;;9.33;8.40;;;16.50;99.90;;;;;;5093039;28;20678;-65
2022/08/31 02:51:10;;;;;;;9.10;8.23;;;16.60;99.90;;;;;;5093653;28;20177;-65
2022/08/31 02:53:37;;;;;;;9.47;8.47;;;16.60;99.90;;;;;;5092455;28;20201;-65
2022/08/31 02:56:04;;;;;;;11.13;8.70;;;16.60;99.90;;;;;;5093003;28;20177;-65
2022/08/31 02:58:29;;;;;;;9.10;8.30;;;16.60;99.90;;;;;;5092882;28;20181;-66
2022/08/31 03:00:55;;;;;;;9.97;9.07;;;16.70;99.90;;;;;;5092896;28;20567;-66
2022/08/31 03:03:21;;;;;;;9.43;8.60;;;16.70;99.90;;;;;;5092140;28;20201;-65
2022/08/31 03:05:48;;;;;;;11.73;8.57;;;16.70;99.90;;;;;;5091084;28;20180;-64
2022/08/31 03:08:13;;;;;;;10.13;8.80;;;16.70;99.90;;;;;;5092571;28;20201;-66
2022/08/31 03:10:39;;;;;;;16.10;9.33;;;16.80;99.90;;;;;;5092303;28;20566;-64
2022/08/31 03:13:04;;;;;;;11.37;8.90;;;16.90;99.90;;;;;;5092561;28;20621;-64
2022/08/31 03:15:30;;;;;;;10.90;9.47;;;16.90;99.90;;;;;;5092160;28;20549;-65
2022/08/31 03:17:56;;;;;;;9.23;8.33;;;16.90;99.90;;;;;;5092691;28;20204;-66
2022/08/31 03:20:25;;;;;;;11.93;9.40;;;16.70;99.90;;;;;;5091753;28;20596;-65
2022/08/31 03:22:50;;;;;;;10.33;8.83;;;16.60;99.90;;;;;;5092237;28;20530;-65
2022/08/31 03:25:16;;;;;;;11.80;9.10;;;16.70;99.90;;;;;;5091967;28;20195;-66
2022/08/31 03:27:42;;;;;;;10.83;9.07;;;16.70;99.90;;;;;;5092062;28;20181;-66
2022/08/31 03:30:12;;;;;;;13.93;8.77;;;16.90;99.90;;;;;;5092345;28;20169;-64
2022/08/31 03:32:38;;;;;;;14.10;10.13;;;16.70;99.90;;;;;;5091715;28;20227;-67
2022/08/31 03:35:04;;;;;;;12.40;9.77;;;16.70;99.90;;;;;;5091738;28;20170;-65
2022/08/31 03:37:30;;;;;;;10.77;9.70;;;16.70;99.90;;;;;;5091836;28;20173;-65
2022/08/31 03:39:56;;;;;;;10.93;9.57;;;16.70;99.90;;;;;;5092080;28;20537;-64
2022/08/31 03:42:23;;;;;;;13.63;9.80;;;16.80;99.90;;;;;;5091781;28;20197;-64
2022/08/31 03:44:48;;;;;;;11.23;10.00;;;16.90;99.90;;;;;;5091585;28;20654;-65
2022/08/31 03:47:15;;;;;;;12.00;10.80;;;17.00;99.90;;;;;;5091947;28;20177;-65
2022/08/31 03:49:41;;;;;;;14.67;10.00;;;17.00;99.90;;;;;;5092021;28;20165;-65
2022/08/31 03:52:07;;;;;;;15.87;9.53;;;16.90;99.90;;;;;;5091889;28;20574;-65
2022/08/31 03:54:33;;;;;;;11.53;10.13;;;16.70;99.90;;;;;;5091588;28;20166;-65
2022/08/31 03:56:58;;;;;;;15.60;10.23;;;16.70;99.90;;;;;;5091973;28;20256;-65
2022/08/31 03:59:24;;;;;;;15.23;10.23;;;16.80;99.90;;;;;;5091594;28;20535;-66
2022/08/31 04:01:49;;;;;;;17.80;10.73;;;16.90;99.90;;;;;;5090356;28;20197;-66
2022/08/31 04:04:15;;;;;;;16.97;11.00;;;17.00;99.90;;;;;;5091476;28;20243;-66
2022/08/31 04:06:43;;;;;;;14.07;11.23;;;16.90;99.90;;;;;;5091922;28;20175;-67
2022/08/31 04:09:09;;;;;;;16.73;11.17;;;16.90;99.90;;;;;;5091406;28;20205;-65
2022/08/31 04:11:34;;;;;;;13.63;10.73;;;16.90;99.90;;;;;;5091704;28;21031;-65
2022/08/31 04:14:00;;;;;;;17.80;12.07;;;16.80;99.90;;;;;;5091037;28;20200;-66
2022/08/31 04:16:26;;;;;;;16.43;11.60;;;16.60;99.90;;;;;;5091637;28;20584;-66
2022/08/31 04:18:53;;;;;;;16.30;12.33;;;16.60;99.90;;;;;;5091568;28;20185;-66
2022/08/31 04:21:21;;;;;;;13.43;11.63;;;16.60;99.90;;;;;;5089680;28;20205;-66
2022/08/31 04:23:48;;;;;;;15.73;11.23;;;16.60;99.90;;;;;;5090796;28;20276;-64
2022/08/31 04:26:32;;;;;;;13.30;10.83;;;16.60;99.90;;;;;;5091374;28;20180;-65
2022/08/31 04:28:58;;;;;;;14.43;11.50;;;16.60;99.90;;;;;;5091265;28;20597;-66
2022/08/31 04:31:25;;;;;;;15.17;11.67;;;16.70;99.90;;;;;;5091217;28;20272;-67
2022/08/31 04:33:51;;;;;;;13.57;11.53;;;16.70;99.90;;;;;;5102381;22;20219;-68
2022/08/31 04:36:21;;;;;;;15.10;12.50;;;16.60;99.90;;;;;;5048475;28;20182;-68
2022/08/31 04:38:49;;;;;;;14.60;11.63;;;16.70;99.90;;;;;;5049986;28;20627;-68
2022/08/31 04:41:17;;;;;;;17.23;12.00;;;16.80;99.90;;;;;;5051279;28;20663;-68
2022/08/31 04:43:46;;;;;;;13.70;10.97;;;16.70;99.90;;;;;;5035089;28;20278;-68
2022/08/31 04:46:12;;;;;;;15.87;11.33;;;16.60;99.90;;;;;;5031608;28;20168;-68
2022/08/31 04:48:38;;;;;;;12.93;11.07;;;16.50;99.90;;;;;;5031155;28;20183;-68
2022/08/31 04:51:05;;;;;;;13.13;11.80;;;16.40;99.90;;;;;;5029833;28;20707;-68
2022/08/31 04:53:31;;;;;;;17.57;12.97;;;16.40;99.90;;;;;;5029363;28;20561;-68
2022/08/31 04:55:57;;;;;;;15.37;12.63;;;16.50;99.90;;;;;;5029667;28;20191;-68
2022/08/31 04:58:23;;;;;;;21.37;12.70;;;16.60;99.90;;;;;;5031190;28;20426;-68
2022/08/31 05:00:52;;;;;;;16.20;12.23;;;16.60;99.90;;;;;;5029872;28;20250;-68
2022/08/31 05:03:18;;;;;;;19.83;12.13;;;16.70;99.90;;;;;;5030512;28;20180;-68
2022/08/31 05:05:49;;;;;;;15.87;11.23;;;16.70;99.90;;;;;;5030532;28;20203;-68
2022/08/31 05:08:15;;;;;;;12.93;11.60;;;16.70;99.90;;;;;;5030958;28;20180;-68
2022/08/31 05:10:41;;;;;;;13.50;12.10;;;16.70;99.90;;;;;;5031321;28;20664;-68
2022/08/31 05:13:07;;;;;;;17.67;12.70;;;16.70;99.90;;;;;;5029259;28;20191;-68
2022/08/31 05:15:33;;;;;;;13.03;11.70;;;16.80;99.90;;;;;;5030443;28;20203;-68
2022/08/31 05:17:59;;;;;;;14.23;11.00;;;16.70;99.90;;;;;;5030871;28;20262;-68
2022/08/31 05:20:25;;;;;;;12.90;11.30;;;16.60;99.90;;;;;;5029548;28;20212;-68
2022/08/31 05:22:51;;;;;;;13.73;11.47;;;16.70;99.90;;;;;;5029555;28;20266;-68
2022/08/31 05:25:16;;;;;;;17.73;12.53;;;16.70;99.90;;;;;;5030336;28;20222;-68
2022/08/31 05:27:42;;;;;;;17.60;12.13;;;16.70;99.90;;;;;;5029730;28;20274;-68
2022/08/31 05:30:08;;;;;;;16.67;11.93;;;16.70;99.90;;;;;;5033162;28;20171;-68
2022/08/31 05:32:34;;;;;;;14.37;12.07;;;16.80;99.90;;;;;;5032932;28;20176;-67
2022/08/31 05:34:59;;;;;;;17.77;12.93;;;16.70;99.90;;;;;;5034028;28;20223;-68
2022/08/31 05:37:25;;;;;;;15.27;12.40;;;16.80;99.90;;;;;;5033966;28;20233;-68
2022/08/31 05:39:51;;;;;;;15.37;11.50;;;16.80;99.90;;;;;;5033112;28;20214;-68
2022/08/31 05:42:19;;;;;;;20.20;12.60;;;16.80;99.90;;;;;;5033870;28;20230;-68
2022/08/31 05:44:45;;;;;;;13.60;12.20;;;16.80;99.90;;;;;;5033832;28;20555;-68
2022/08/31 05:47:11;;;;;;;15.30;12.13;;;16.70;99.90;;;;;;5033463;28;20180;-68
2022/08/31 05:49:37;;;;;;;17.00;12.90;;;16.70;99.90;;;;;;5033982;28;20179;-68
2022/08/31 05:52:04;;;;;;;14.67;12.30;;;16.70;99.90;;;;;;5033742;28;20191;-68
2022/08/31 05:54:33;;;;;;;20.10;12.67;;;16.60;99.90;;;;;;5015068;28;20223;-67
2022/08/31 05:56:58;;;;;;;13.93;12.43;;;16.70;99.90;;;;;;5018669;28;20187;-68
2022/08/31 05:59:24;;;;;;;16.90;12.67;;;16.80;99.90;;;;;;5033807;28;20718;-68
2022/08/31 06:01:49;;;;;;;14.67;12.37;;;16.80;99.90;;;;;;5032261;28;20257;-67
2022/08/31 06:04:16;;;;;;;16.83;12.63;;;16.90;99.90;;;;;;5032072;28;20294;-67
2022/08/31 06:06:42;;;;;;;13.80;11.67;;;16.80;99.90;;;;;;5032257;28;20180;-68
2022/08/31 06:09:08;;;;;;;14.70;12.00;;;16.80;99.90;;;;;;5032239;28;20186;-68
2022/08/31 06:11:34;;;;;;;13.67;11.53;;;16.80;99.90;;;;;;5032117;28;20184;-67
2022/08/31 06:14:02;;;;;;;15.23;11.87;;;16.80;99.90;;;;;;5012121;28;20196;-67
2022/08/31 06:16:29;;;;;;;15.33;11.43;;;16.90;99.90;;;;;;5031765;28;20191;-68
2022/08/31 06:18:57;;;;;;;17.67;12.03;;;16.90;99.90;;;;;;5033499;28;20266;-68
2022/08/31 06:21:32;;;;;;;14.50;11.33;;;17.00;99.90;;;;;;5033018;28;20246;-67
2022/08/31 06:23:59;;;;;;;15.03;11.20;;;17.00;99.90;;;;;;5031887;28;20223;-67
2022/08/31 06:26:27;;;;;;;18.57;11.80;;;17.00;99.90;;;;;;5031782;28;20392;-67
2022/08/31 06:28:55;;;;;;;12.93;11.63;;;16.90;99.90;;;;;;5013534;28;20182;-68
2022/08/31 06:31:29;;;;;;;13.90;11.17;;;16.90;99.90;;;;;;5013735;28;20176;-67
2022/08/31 06:33:56;;;;;;;13.03;11.40;;;17.00;99.90;;;;;;5028135;28;20215;-67
2022/08/31 06:36:24;;;;;;;13.67;12.20;;;17.00;99.90;;;;;;5033080;28;20187;-67
2022/08/31 06:38:50;;;;;;;14.07;11.80;;;17.10;99.90;;;;;;5033024;28;20192;-67
2022/08/31 06:41:23;;;;;;;13.03;11.73;;;17.20;99.90;;;;;;5032738;28;20215;-67
2022/08/31 06:43:49;;;;;;;14.50;12.67;;;17.20;99.90;;;;;;5031157;28;20248;-67
2022/08/31 06:46:16;;;;;;;14.17;12.27;;;17.30;99.90;;;;;;5031554;28;20641;-67
2022/08/31 06:48:43;;;;;;;15.03;11.60;;;17.20;99.90;;;;;;5032825;28;20175;-67
2022/08/31 06:51:10;;;;;;;14.73;11.60;;;17.20;99.90;;;;;;5032735;28;20182;-67
2022/08/31 06:53:41;;;;;;;15.07;12.33;;;17.20;99.90;;;;;;5032116;28;20179;-67
2022/08/31 06:56:13;;;;;;;14.57;11.97;;;17.20;99.90;;;;;;5032650;28;20254;-67
2022/08/31 06:58:39;;;;;;;13.93;11.93;;;17.30;99.90;;;;;;5032628;28;20183;-67
2022/08/31 07:01:10;;;;;;;13.73;12.33;;;17.20;99.90;;;;;;5031099;28;20214;-68
2022/08/31 07:03:37;;;;;;;14.23;11.57;;;17.20;99.90;;;;;;5030610;28;20183;-67
2022/08/31 07:06:16;;;;;;;14.37;11.80;;;17.10;99.90;;;;;;5032558;28;20180;-67
2022/08/31 07:08:44;;;;;;;12.97;11.77;;;17.10;99.90;;;;;;5032387;28;20206;-67
2022/08/31 07:11:12;;;;;;;14.63;11.33;;;17.20;99.90;;;;;;5032397;28;20187;-67
2022/08/31 07:13:38;;;;;;;14.97;11.17;;;17.20;99.90;;;;;;5031635;28;20641;-68
2022/08/31 07:16:07;;;;;;;14.70;12.13;;;17.30;99.90;;;;;;5031050;28;20261;-67
2022/08/31 07:18:33;;;;;;;15.07;13.47;;;17.30;99.90;;;;;;5032280;28;20194;-67
2022/08/31 07:21:33;;;;;;;14.10;11.70;;;17.40;99.90;;;;;;5031076;28;20298;-67
2022/08/31 07:24:01;;;;;;;18.13;12.13;;;17.40;99.90;;;;;;5027210;28;20195;-67
2022/08/31 07:26:45;;;;;;;17.13;12.23;;;17.50;99.90;;;;;;5032157;28;20186;-67
2022/08/31 07:29:13;;;;;;;13.37;11.70;;;17.50;99.90;;;;;;5030382;28;20183;-67
2022/08/31 07:31:45;;;;;;;13.57;11.80;;;17.40;99.90;;;;;;5032018;28;20172;-67
2022/08/31 07:34:13;;;;;;;16.47;12.10;;;17.40;99.90;;;;;;5029713;28;20212;-67
2022/08/31 07:42:10;;;;;;;13.70;12.27;;;17.30;99.90;;;;;;5031837;28;20206;-67
2022/08/31 07:44:36;;;;;;;12.53;11.13;;;17.40;99.90;;;;;;5031423;28;20202;-67
2022/08/31 07:47:02;;;;;;;13.70;12.30;;;17.50;99.90;;;;;;5030617;28;20550;-67
2022/08/31 07:49:29;;;;;;;14.40;12.40;;;17.60;99.90;;;;;;5031345;28;20176;-67
2022/08/31 07:51:56;;;;;;;15.80;11.93;;;17.80;99.90;;;;;;5031535;28;20172;-67
2022/08/31 07:54:26;;;;;;;15.13;12.77;;;17.80;99.90;;;;;;5030749;28;20195;-67
2022/08/31 07:56:59;;;;;;;16.27;12.27;;;18.00;99.90;;;;;;5028902;28;20191;-67
2022/08/31 07:59:25;;;;;;;13.07;11.63;;;18.10;99.90;;;;;;5029954;28;20606;-67
2022/08/31 08:01:54;;;;;;;12.30;11.10;;;18.40;99.90;;;;;;5031202;28;20199;-67
2022/08/31 08:04:25;;;;;;;14.90;11.53;;;18.60;99.90;;;;;;5031161;28;20187;-67
2022/08/31 08:06:55;;;;;;;12.57;10.20;;;18.80;99.90;;;;;;5030337;28;20697;-67
2022/08/31 08:09:23;;;;;;;11.37;10.37;;;19.00;99.90;;;;;;5031369;28;20652;-67
2022/08/31 08:11:53;;;;;;;11.50;10.00;;;19.00;99.90;;;;;;5029708;28;20203;-67
2022/08/31 08:14:20;;;;;;;11.07;9.97;;;19.20;99.90;;;;;;5031166;28;20504;-67
2022/08/31 08:16:46;;;;;;;12.17;9.77;;;19.40;99.90;;;;;;5030100;28;20172;-67
2022/08/31 08:19:12;;;;;;;10.07;9.17;;;19.40;99.90;;;;;;5031309;28;20230;-67
2022/08/31 08:21:37;;;;;;;10.93;10.03;;;19.50;99.90;;;;;;5031234;28;20619;-67
2022/08/31 08:24:03;;;;;;;10.23;9.23;;;19.60;99.90;;;;;;5029364;28;20549;-67
2022/08/31 08:26:29;;;;;;;12.97;9.10;;;19.60;99.90;;;;;;5030234;28;20175;-67
2022/08/31 08:28:55;;;;;;;10.80;9.70;;;19.80;99.90;;;;;;5030628;28;20663;-67
2022/08/31 08:31:21;;;;;;;12.37;9.97;;;19.90;99.90;;;;;;5029891;28;20514;-67
2022/08/31 08:33:49;;;;;;;8.60;7.80;;;19.90;99.90;;;;;;5029209;28;20214;-67
2022/08/31 08:36:17;;;;;;;8.98;8.18;;;20.10;99.90;;;;;;5029901;28;20310;-67
2022/08/31 08:38:45;;;;;;;10.23;9.35;;;20.20;99.90;;;;;;5029916;28;20178;-67
2022/08/31 08:41:18;;;;;;;11.93;8.07;;;20.50;99.90;;;;;;5031116;28;20286;-67
2022/08/31 08:43:47;;;;;;;9.10;8.15;;;21.00;99.90;;;;;;5030609;28;20691;-67
2022/08/31 08:46:14;;;;;;;7.57;6.85;;;21.50;99.90;;;;;;5029830;28;20202;-67
2022/08/31 08:48:42;;;;;;;7.55;6.85;;;22.00;99.90;;;;;;5029724;28;20180;-67
2022/08/31 08:51:17;;;;;;;7.85;7.15;;;22.70;99.90;;;;;;5029796;28;20183;-67
2022/08/31 08:53:45;;;;;;;7.57;6.57;;;23.40;99.90;;;;;;5029248;28;20202;-67
2022/08/31 08:56:12;;;;;;;6.38;5.78;;;24.10;99.90;;;;;;5030790;28;20656;-67
2022/08/31 08:58:42;;;;;;;8.02;6.90;;;24.80;99.90;;;;;;5031252;28;20172;-68
2022/08/31 09:01:12;;;;;;;6.35;5.72;;;25.50;99.90;;;;;;5029533;28;20211;-67
2022/08/31 09:03:54;;;;;;;6.28;5.78;;;26.10;99.90;;;;;;5031450;28;20186;-67
2022/08/31 09:06:27;;;;;;;7.32;6.20;;;27.00;99.90;;;;;;5033985;28;20604;-67
2022/08/31 09:09:07;;;;;;;6.80;6.22;;;27.60;99.90;;;;;;5034988;28;20218;-67
2022/08/31 09:11:57;;;;;;;7.30;5.88;;;28.00;99.90;;;;;;5034407;28;20194;-67
2022/08/31 09:15:00;;;;;;;6.05;5.53;;;28.10;99.90;;;;;;5033196;28;20218;-67
2022/08/31 09:17:41;;;;;;;6.93;5.50;;;28.50;99.90;;;;;;5033095;28;20183;-67
2022/08/31 09:20:11;;;;;;;7.05;6.40;;;28.60;99.90;;;;;;5034414;28;20203;-65
2022/08/31 09:22:49;;;;;;;7.25;6.65;;;29.00;99.90;;;;;;5034235;28;20175;-67
2022/08/31 09:25:27;;;;;;;6.50;6.07;;;29.20;99.90;;;;;;5029920;28;20191;-67
2022/08/31 09:27:56;;;;;;;5.63;5.13;;;29.60;99.90;;;;;;5028799;28;20175;-67
2022/08/31 09:30:44;;;;;;;4.85;4.43;;;29.90;99.90;;;;;;5033611;28;20179;-67
2022/08/31 09:33:22;;;;;;;6.03;4.85;;;30.10;99.90;;;;;;5028733;28;20275;-67
2022/08/31 09:35:54;;;;;;;6.72;4.45;;;30.20;99.90;;;;;;5015015;28;20183;-67
2022/08/31 09:38:31;;;;;;;5.10;4.68;;;30.40;99.90;;;;;;5033383;28;20378;-67
2022/08/31 09:40:58;;;;;;;7.35;4.32;;;30.70;99.90;;;;;;5032985;28;20572;-65
2022/08/31 09:43:36;;;;;;;5.30;4.75;;;30.90;99.90;;;;;;5033618;28;20250;-65
2022/08/31 09:46:10;;;;;;;5.25;4.35;;;30.70;99.90;;;;;;5030118;28;20712;-65
2022/08/31 09:48:51;;;;;;;6.03;5.53;;;30.40;99.90;;;;;;5032645;28;20204;-65
2022/08/31 09:51:22;;;;;;;4.47;4.07;;;30.20;99.90;;;;;;5032489;28;20214;-67
2022/08/31 09:56:54;;;;;;;7.40;6.70;;;30.50;99.90;;;;;;5034047;28;20178;-67
2022/08/31 09:59:45;;;;;;;7.13;6.57;;;30.60;99.90;;;;;;5033876;28;20168;-67
2022/08/31 10:02:25;;;;;;;5.88;5.38;;;30.60;99.90;;;;;;5028968;28;20699;-67
2022/08/31 10:05:04;;;;;;;9.70;6.07;;;30.90;99.90;;;;;;5033467;28;20199;-67
2022/08/31 10:08:03;;;;;;;5.85;5.32;;;31.20;99.90;;;;;;5032398;28;20167;-65
2022/08/31 10:10:37;;;;;;;5.43;4.93;;;31.40;99.90;;;;;;5033777;28;20252;-66
2022/08/31 10:13:24;;;;;;;5.07;4.57;;;31.80;99.90;;;;;;5032500;28;20183;-67
2022/08/31 10:15:56;;;;;;;6.07;4.78;;;32.10;99.90;;;;;;5032379;28;20176;-65
2022/08/31 10:18:42;;;;;;;7.60;4.70;;;32.40;99.90;;;;;;5033382;28;20353;-65
2022/08/31 10:21:12;;;;;;;5.03;4.50;;;32.30;99.90;;;;;;5032024;28;20252;-67
2022/08/31 10:23:53;;;;;;;5.38;4.78;;;32.50;99.90;;;;;;5033319;28;20172;-65
2022/08/31 10:26:35;;;;;;;7.53;5.45;;;32.80;99.90;;;;;;5033504;28;20246;-65
2022/08/31 10:29:07;;;;;;;6.97;5.22;;;32.90;99.90;;;;;;5033326;28;20259;-66
2022/08/31 10:31:44;;;;;;;5.00;4.57;;;33.10;99.90;;;;;;5033429;28;20194;-65
2022/08/31 10:38:20;;;;;;;6.93;4.85;;;32.10;99.90;;;;;;5073800;28;20200;-65
2022/08/31 10:41:26;;;;;;;10.25;5.38;;;31.60;99.90;;;;;;5050772;28;20718;-66
2022/08/31 10:44:25;;;;;;;7.32;5.65;;;31.10;99.90;;;;;;5072262;28;20527;-66
2022/08/31 10:46:53;;;;;;;7.68;5.65;;;30.80;99.90;;;;;;5073076;28;20584;-66
2022/08/31 10:49:22;;;;;;;6.88;5.00;;;30.60;99.90;;;;;;5072473;28;20166;-65
2022/08/31 10:52:16;;;;;;;6.40;5.80;;;30.30;99.90;;;;;;5072502;28;20181;-65
2022/08/31 10:54:42;;;;;;;7.90;7.20;;;30.00;99.90;;;;;;5072676;28;20185;-66
2022/08/31 10:57:32;;;;;;;7.53;6.80;;;29.90;99.90;;;;;;5072380;28;20180;-65
2022/08/31 11:00:07;;;;;;;8.45;6.90;;;29.50;99.90;;;;;;5072634;28;20736;-65
2022/08/31 11:02:51;;;;;;;7.05;6.35;;;29.10;99.90;;;;;;5072546;28;20185;-64
2022/08/31 11:05:28;;;;;;;7.18;6.57;;;29.00;99.90;;;;;;5071879;28;20198;-65
2022/08/31 11:08:11;;;;;;;6.93;6.30;;;28.80;99.90;;;;;;5072382;28;20212;-65
2022/08/31 11:10:56;;;;;;;8.23;7.57;;;28.70;99.90;;;;;;5071950;28;20174;-66
2022/08/31 11:13:37;;;;;;;7.03;4.78;;;28.90;99.90;;;;;;5071934;28;20265;-65
2022/08/31 11:16:19;;;;;;;5.18;4.65;;;29.30;99.90;;;;;;5071913;28;20678;-66
2022/08/31 11:19:15;;;;;;;4.90;4.40;;;30.20;99.90;;;;;;5072144;28;20249;-65
2022/08/31 11:22:10;;;;;;;5.38;4.90;;;30.50;99.90;;;;;;5070544;28;20206;-66
2022/08/31 11:24:54;;;;;;;6.72;6.07;;;30.40;99.90;;;;;;5071544;28;20198;-66
2022/08/31 11:27:35;;;;;;;6.35;5.65;;;30.00;99.90;;;;;;5071554;28;20174;-66
2022/08/31 11:30:27;;;;;;;5.60;5.05;;;30.20;99.90;;;;;;5071649;28;20803;-64
2022/08/31 11:32:59;;;;;;;5.35;4.90;;;30.20;99.90;;;;;;5072051;28;20177;-65
2022/08/31 11:36:09;;;;;;;6.30;4.85;;;30.10;99.90;;;;;;5071118;28;20255;-65
2022/08/31 11:38:56;;;;;;;6.22;5.03;;;30.00;99.90;;;;;;5071647;28;20657;-65
2022/08/31 11:41:33;;;;;;;6.30;4.88;;;29.90;99.90;;;;;;5071528;28;20309;-66
2022/08/31 11:44:03;;;;;;;5.00;4.65;;;29.90;99.90;;;;;;5071434;28;20173;-65
2022/08/31 11:46:58;;;;;;;5.30;4.57;;;30.20;99.90;;;;;;5071629;28;20272;-67
2022/08/31 11:49:35;;;;;;;6.18;5.13;;;30.50;99.90;;;;;;5071842;28;20251;-66
2022/08/31 11:52:04;;;;;;;5.90;4.53;;;30.50;99.90;;;;;;5071605;28;20555;-67
2022/08/31 11:54:36;;;;;;;7.45;5.05;;;30.20;99.90;;;;;;5071483;28;20200;-66
2022/08/31 11:57:05;;;;;;;4.90;4.60;;;30.00;99.90;;;;;;5071998;28;20189;-67
2022/08/31 11:59:34;;;;;;;6.50;4.70;;;29.90;99.90;;;;;;5072284;28;20652;-66
2022/08/31 12:02:19;;;;;;;5.00;4.60;;;30.20;99.90;;;;;;5071523;28;20198;-66
2022/08/31 12:04:46;;;;;;;4.43;4.13;;;30.60;99.90;;;;;;5071135;28;20355;-66
2022/08/31 12:07:35;;;;;;;5.53;4.95;;;30.70;99.90;;;;;;5071634;28;20504;-65
2022/08/31 12:10:42;;;;;;;4.90;4.60;;;30.60;99.90;;;;;;5068470;28;20186;-66
2022/08/31 12:13:26;;;;;;;4.63;4.25;;;30.40;99.90;;;;;;5068145;28;20190;-66
2022/08/31 12:16:17;;;;;;;4.95;4.65;;;30.40;99.90;;;;;;5071690;28;20193;-66
2022/08/31 12:25:16;;;;;;;6.63;4.97;;;30.70;99.90;;;;;;5051351;28;20200;-67
2022/08/31 12:27:53;;;;;;;4.97;4.45;;;30.90;99.90;;;;;;5065911;28;20196;-66
2022/08/31 12:30:26;;;;;;;5.20;4.00;;;30.80;99.90;;;;;;5071515;28;20178;-65
2022/08/31 12:33:15;;;;;;;4.00;3.70;;;31.10;99.90;;;;;;5069946;28;20166;-66
2022/08/31 12:35:41;;;;;;;4.47;4.15;;;30.80;99.90;;;;;;5070656;28;20217;-65
2022/08/31 12:38:16;;;;;;;5.78;4.57;;;30.60;99.90;;;;;;5072864;28;20662;-65
2022/08/31 12:40:49;;;;;;;4.47;4.07;;;31.00;99.90;;;;;;5075245;28;20201;-65
2022/08/31 12:43:19;;;;;;;7.85;4.43;;;31.10;99.90;;;;;;5075119;28;20174;-66
2022/08/31 12:45:54;;;;;;;4.32;4.00;;;31.00;99.90;;;;;;5075422;28;20307;-65
2022/08/31 12:48:30;;;;;;;4.22;3.92;;;30.30;99.90;;;;;;5074502;28;20180;-66
2022/08/31 12:51:15;;;;;;;5.55;5.15;;;29.80;99.90;;;;;;5075348;28;20201;-68
2022/08/31 12:53:51;;;;;;;7.57;4.63;;;29.70;99.90;;;;;;5074793;28;20174;-65
2022/08/31 12:56:38;;;;;;;4.07;3.78;;;30.10;99.90;;;;;;5075232;28;20181;-65
2022/08/31 12:59:39;;;;;;;4.05;3.75;;;30.80;99.90;;;;;;5075221;28;20635;-65
2022/08/31 13:02:09;;;;;;;3.88;3.67;;;31.30;99.90;;;;;;5074816;28;20262;-65
2022/08/31 13:04:35;;;;;;;4.93;4.63;;;31.90;99.90;;;;;;5074473;28;20259;-65
2022/08/31 13:07:33;;;;;;;5.90;5.50;;;32.40;99.90;;;;;;5074933;28;20648;-65
2022/08/31 13:10:08;;;;;;;8.02;6.25;;;32.40;99.90;;;;;;5062362;28;20182;-65
2022/08/31 13:12:34;;;;;;;5.82;5.50;;;32.00;99.90;;;;;;5074808;28;20170;-65
2022/08/31 13:15:00;;;;;;;3.92;3.63;;;31.70;99.90;;;;;;5074273;28;20198;-66
2022/08/31 13:17:36;;;;;;;4.60;4.30;;;31.30;99.90;;;;;;5074595;28;20251;-64
2022/08/31 13:20:05;;;;;;;5.75;3.85;;;30.80;99.90;;;;;;5074476;28;20592;-65
2022/08/31 13:22:38;;;;;;;4.07;3.75;;;30.10;99.90;;;;;;5074430;28;20194;-66